Time;durP1;ratioP1;P1;durP2;ratioP2;P2;SDS_P1;SDS_P2;PMS_P1;PMS_P2;Temp;Humidity;BMP_temperature;BMP_pressure;BME280_temperature;BME280_humidity;BME280_pressure;Samples;Min_cycle;Max_cycle;Signal;HPM_P1;HPM_P2
2023/12/16 00:00:40;;;;;;;1.38;1.10;;;;;;;21.12;44.50;103813.34;5069222;27;96831;-76
2023/12/16 00:03:07;;;;;;;1.25;0.95;;;;;;;21.12;44.90;103818.81;5053100;27;99728;-76
2023/12/16 00:05:34;;;;;;;2.35;1.63;;;;;;;21.12;44.81;103820.66;5058626;27;96824;-75
2023/12/16 00:08:01;;;;;;;3.08;1.27;;;;;;;21.12;44.92;103817.94;5071664;27;96908;-76
2023/12/16 00:10:27;;;;;;;2.75;1.30;;;;;;;21.14;44.83;103830.50;5058832;27;96812;-76
2023/12/16 00:12:54;;;;;;;2.95;1.40;;;;;;;21.13;44.85;103830.63;5062209;27;97654;-75
2023/12/16 00:15:21;;;;;;;1.83;1.27;;;;;;;21.13;44.67;103820.56;5064617;27;96858;-75
2023/12/16 00:17:48;;;;;;;1.80;1.20;;;;;;;21.13;44.68;103812.38;5052867;27;96755;-75
2023/12/16 00:20:15;;;;;;;2.35;1.40;;;;;;;21.13;44.92;103816.94;5066945;27;96700;-75
2023/12/16 00:22:42;;;;;;;1.50;1.00;;;;;;;21.13;44.83;103823.28;5052881;27;98660;-75
2023/12/16 00:25:09;;;;;;;1.92;1.20;;;;;;;21.13;44.67;103812.38;5035570;27;98374;-75
2023/12/16 00:27:36;;;;;;;2.00;1.10;;;;;;;21.12;44.53;103810.59;5063566;27;96610;-76
2023/12/16 00:30:05;;;;;;;2.55;1.13;;;;;;;21.14;44.83;103805.91;5050786;27;99271;-75
2023/12/16 00:32:32;;;;;;;2.10;1.10;;;;;;;21.13;44.59;103806.91;5064973;27;97312;-76
2023/12/16 00:34:59;;;;;;;1.58;1.15;;;;;;;21.13;44.85;103804.16;5067911;27;96766;-76
2023/12/16 00:37:25;;;;;;;2.22;1.30;;;;;;;21.14;44.67;103796.84;5072110;27;96931;-76
2023/12/16 00:39:52;;;;;;;2.67;1.30;;;;;;;21.14;44.85;103794.97;5068415;27;96790;-75
2023/12/16 00:42:19;;;;;;;3.10;1.10;;;;;;;21.14;44.79;103799.56;5062842;27;96833;-76
2023/12/16 00:44:45;;;;;;;1.55;0.93;;;;;;;21.14;44.72;103796.84;5072814;27;98431;-76
2023/12/16 00:47:12;;;;;;;2.25;1.50;;;;;;;21.15;44.35;103806.78;5069080;27;97086;-75
2023/12/16 00:49:38;;;;;;;2.78;1.38;;;;;;;21.14;44.96;103811.38;5044920;27;98767;-75
2023/12/16 00:52:05;;;;;;;2.05;1.20;;;;;;;21.14;44.68;103807.78;5072809;27;97078;-75
2023/12/16 00:54:32;;;;;;;1.48;1.10;;;;;;;21.14;44.66;103811.38;5062894;27;96877;-75
2023/12/16 00:56:58;;;;;;;1.70;1.05;;;;;;;21.15;44.73;103806.78;5064660;27;96866;-75
2023/12/16 00:59:26;;;;;;;2.40;1.25;;;;;;;21.14;44.70;103814.13;5049367;27;100461;-76
2023/12/16 01:01:53;;;;;;;1.60;1.10;;;;;;;21.14;44.54;103810.50;5061638;27;96761;-76
2023/12/16 01:04:19;;;;;;;1.70;1.30;;;;;;;21.15;44.76;103820.47;5050831;27;96939;-76
2023/12/16 01:06:46;;;;;;;2.25;1.15;;;;;;;21.15;44.61;103809.53;5039552;27;96732;-75
2023/12/16 01:09:13;;;;;;;2.45;1.33;;;;;;;21.15;44.66;103804.06;5047907;27;99112;-75
2023/12/16 01:11:41;;;;;;;2.20;1.00;;;;;;;21.14;44.78;103808.66;5068131;27;96736;-76
2023/12/16 01:14:08;;;;;;;1.98;0.85;;;;;;;21.15;44.64;103806.78;5059673;27;96603;-76
2023/12/16 01:16:35;;;;;;;1.85;1.00;;;;;;;21.14;44.46;103811.38;5042961;27;96668;-75
2023/12/16 01:19:01;;;;;;;1.85;1.20;;;;;;;21.14;44.47;103794.97;5066142;27;96603;-75
2023/12/16 01:21:28;;;;;;;2.30;1.30;;;;;;;21.15;44.45;103795.84;5066913;27;97225;-75
2023/12/16 01:23:55;;;;;;;1.23;1.00;;;;;;;21.15;44.29;103794.00;5049447;27;96882;-75
2023/12/16 01:26:22;;;;;;;2.40;1.30;;;;;;;21.16;44.82;103789.41;5071740;27;96812;-75
2023/12/16 01:28:48;;;;;;;1.83;1.05;;;;;;;21.15;44.57;103791.25;5062682;27;96694;-76
2023/12/16 01:31:15;;;;;;;2.65;1.08;;;;;;;21.15;44.58;103783.06;5048556;27;99720;-75
2023/12/16 01:33:42;;;;;;;2.15;1.33;;;;;;;21.16;44.70;103792.13;5067355;27;96985;-76
2023/12/16 01:36:09;;;;;;;2.33;1.30;;;;;;;21.16;44.41;103789.41;5049599;27;96870;-75
2023/12/16 01:38:35;;;;;;;1.67;1.15;;;;;;;21.17;44.39;103793.88;5047984;27;97336;-75
2023/12/16 01:41:02;;;;;;;1.52;1.23;;;;;;;21.15;44.48;103796.72;5045843;27;97802;-75
2023/12/16 01:43:29;;;;;;;1.90;1.00;;;;;;;21.17;44.43;103802.09;5067013;27;96585;-76
2023/12/16 01:46:01;;;;;;;1.92;1.23;;;;;;;21.17;44.69;103799.34;5061127;27;96821;-75
2023/12/16 01:48:33;;;;;;;2.13;1.38;;;;;;;21.16;44.78;103784.81;5066903;27;97230;-75
2023/12/16 01:51:03;;;;;;;1.70;1.17;;;;;;;21.16;44.38;103787.56;5066062;27;97274;-76
2023/12/16 01:53:32;;;;;;;1.05;0.93;;;;;;;21.17;44.62;103782.97;5047648;27;96767;-76
2023/12/16 01:55:59;;;;;;;1.65;0.90;;;;;;;21.15;44.37;103772.13;5055862;27;96907;-75
2023/12/16 01:58:25;;;;;;;2.08;1.10;;;;;;;21.16;44.62;103765.69;5067679;27;96961;-75
2023/12/16 02:00:52;;;;;;;2.95;1.25;;;;;;;21.16;44.41;103771.16;5043702;27;96887;-76
2023/12/16 02:03:20;;;;;;;1.77;0.93;;;;;;;21.17;44.58;103777.50;5019192;27;96732;-75
2023/12/16 02:05:47;;;;;;;1.75;1.00;;;;;;;21.16;44.53;103779.34;5039696;27;96908;-75
2023/12/16 02:08:14;;;;;;;2.00;1.33;;;;;;;21.16;44.60;103782.09;5070392;27;97342;-76
2023/12/16 02:10:40;;;;;;;2.15;1.13;;;;;;;21.17;44.77;103785.69;5049506;27;98564;-75
2023/12/16 02:13:07;;;;;;;2.60;1.20;;;;;;;21.17;44.56;103782.97;5058461;27;97236;-77
2023/12/16 02:15:34;;;;;;;1.27;0.98;;;;;;;21.17;44.45;103788.44;5065415;27;96632;-77
2023/12/16 02:18:00;;;;;;;1.75;0.90;;;;;;;21.17;44.44;103785.69;5062157;27;96837;-77
2023/12/16 02:20:27;;;;;;;2.10;0.98;;;;;;;21.18;44.77;103788.31;5066004;27;96643;-76
2023/12/16 02:22:54;;;;;;;2.28;1.10;;;;;;;21.16;44.59;103795.75;5044763;27;97367;-76
2023/12/16 02:25:21;;;;;;;1.52;1.10;;;;;;;21.17;44.63;103796.63;5049420;27;96908;-76
2023/12/16 02:27:47;;;;;;;2.47;1.20;;;;;;;21.18;44.47;103795.66;5060704;27;97898;-76
2023/12/16 02:30:14;;;;;;;1.33;1.10;;;;;;;21.18;44.44;103798.38;5066240;27;96842;-76
2023/12/16 02:32:41;;;;;;;1.42;0.90;;;;;;;21.17;44.59;103794.78;5041829;27;97407;-77
2023/12/16 02:35:08;;;;;;;1.63;1.15;;;;;;;21.18;44.47;103801.13;5056464;27;96872;-76
2023/12/16 02:37:35;;;;;;;2.42;1.08;;;;;;;21.17;44.56;103794.78;5067403;27;97348;-76
2023/12/16 02:40:02;;;;;;;1.58;1.00;;;;;;;21.18;44.65;103793.78;5037157;27;99570;-76
2023/12/16 02:42:30;;;;;;;1.42;0.93;;;;;;;21.17;44.50;103797.50;5046989;27;97805;-77
2023/12/16 02:44:56;;;;;;;1.38;0.90;;;;;;;21.17;44.82;103789.31;5063100;27;97141;-76
2023/12/16 02:47:23;;;;;;;1.40;1.00;;;;;;;21.17;44.21;103783.84;5054579;27;98322;-76
2023/12/16 02:49:50;;;;;;;1.80;1.20;;;;;;;21.18;44.51;103782.84;5065775;27;97095;-76
2023/12/16 02:52:16;;;;;;;2.38;1.02;;;;;;;21.18;44.40;103779.25;5060656;27;96800;-76
2023/12/16 02:54:43;;;;;;;1.92;1.08;;;;;;;21.18;44.37;103779.25;5068722;27;96660;-77
2023/12/16 02:57:09;;;;;;;1.90;1.00;;;;;;;21.18;44.24;103781.97;5072654;27;96892;-77
2023/12/16 02:59:36;;;;;;;1.67;0.93;;;;;;;21.19;44.34;103786.47;5041646;27;97676;-77
2023/12/16 03:02:03;;;;;;;1.55;1.00;;;;;;;21.18;44.52;103791.06;5062338;27;96773;-77
2023/12/16 03:04:30;;;;;;;1.70;1.17;;;;;;;21.18;44.49;103781.97;5063450;27;96712;-76
2023/12/16 03:06:56;;;;;;;2.60;0.85;;;;;;;21.19;44.42;103791.94;5061979;27;96874;-77
2023/12/16 03:09:23;;;;;;;1.15;0.90;;;;;;;21.18;44.47;103788.31;5061254;27;96662;-76
2023/12/16 03:11:51;;;;;;;1.60;1.10;;;;;;;21.18;44.59;103781.97;5070098;27;96792;-76
2023/12/16 03:14:18;;;;;;;1.98;0.90;;;;;;;21.19;44.42;103786.47;5064717;27;96826;-76
2023/12/16 03:16:45;;;;;;;1.58;1.00;;;;;;;21.18;44.70;103780.13;5056979;27;96766;-76
2023/12/16 03:19:11;;;;;;;1.50;0.93;;;;;;;21.19;44.38;103781.00;5034139;27;97925;-77
2023/12/16 03:21:39;;;;;;;1.60;0.90;;;;;;;21.21;44.44;103784.50;5045390;27;96768;-77
2023/12/16 03:24:06;;;;;;;2.17;0.90;;;;;;;21.20;44.42;103777.28;5059249;27;97457;-77
2023/12/16 03:26:32;;;;;;;1.17;0.80;;;;;;;21.19;44.65;103779.13;5063616;27;98094;-76
2023/12/16 03:28:59;;;;;;;1.55;0.90;;;;;;;21.19;44.46;103776.41;5052166;27;98694;-76
2023/12/16 03:31:26;;;;;;;1.50;1.00;;;;;;;21.18;44.15;103769.19;5042418;27;96623;-76
2023/12/16 03:33:53;;;;;;;1.27;0.80;;;;;;;21.18;44.22;103763.72;5053146;27;97804;-76
2023/12/16 03:36:20;;;;;;;2.33;1.10;;;;;;;21.18;44.17;103769.19;5058924;27;96715;-76
2023/12/16 03:38:46;;;;;;;1.90;1.00;;;;;;;21.19;44.48;103772.78;5052232;27;96810;-76
2023/12/16 03:41:13;;;;;;;2.08;0.95;;;;;;;21.19;44.36;103770.94;5054811;27;96775;-76
2023/12/16 03:43:40;;;;;;;1.98;0.90;;;;;;;21.19;44.49;103776.41;5061440;27;96720;-76
2023/12/16 03:46:07;;;;;;;1.88;0.93;;;;;;;21.19;44.26;103775.53;5065962;27;97683;-76
2023/12/16 03:48:34;;;;;;;1.05;0.82;;;;;;;21.19;43.94;103776.41;5046968;27;96821;-77
2023/12/16 03:51:01;;;;;;;1.40;0.90;;;;;;;21.18;44.43;103774.66;5059413;27;96763;-77
2023/12/16 03:53:28;;;;;;;1.65;0.80;;;;;;;21.19;44.63;103764.59;5049402;27;96989;-77
2023/12/16 03:55:54;;;;;;;2.83;1.00;;;;;;;21.19;44.24;103776.41;5060427;27;97788;-77
2023/12/16 03:58:21;;;;;;;1.10;0.80;;;;;;;21.19;44.25;103776.41;5050124;27;97528;-77
2023/12/16 04:00:48;;;;;;;1.08;0.70;;;;;;;21.20;44.01;103769.09;5059523;27;96624;-77
2023/12/16 04:03:15;;;;;;;2.25;0.75;;;;;;;21.19;44.42;103764.59;5044173;27;97191;-77
2023/12/16 04:05:42;;;;;;;1.45;0.70;;;;;;;21.19;44.26;103759.13;5063311;27;96877;-76
2023/12/16 04:08:09;;;;;;;1.27;0.80;;;;;;;21.18;44.18;103758.25;5041449;27;98284;-76
2023/12/16 04:10:35;;;;;;;1.77;0.82;;;;;;;21.19;44.30;103753.66;5065572;27;97325;-76
2023/12/16 04:13:02;;;;;;;1.30;0.80;;;;;;;21.19;44.06;103759.13;5064096;27;96903;-77
2023/12/16 04:15:29;;;;;;;1.63;0.90;;;;;;;21.19;44.23;103768.19;5061429;27;97466;-76
2023/12/16 04:17:55;;;;;;;2.35;0.98;;;;;;;21.19;44.17;103776.41;5048648;27;98104;-76
2023/12/16 04:20:22;;;;;;;1.25;0.90;;;;;;;21.20;44.03;103780.88;5062087;27;96716;-77
2023/12/16 04:22:49;;;;;;;2.15;1.23;;;;;;;21.19;44.42;103775.53;5065002;27;96977;-76
2023/12/16 04:25:15;;;;;;;1.90;0.90;;;;;;;21.20;44.23;103780.00;5036974;27;99380;-76
2023/12/16 04:27:42;;;;;;;2.60;0.93;;;;;;;21.19;44.36;103768.19;5060436;27;97554;-76
2023/12/16 04:30:10;;;;;;;1.35;0.90;;;;;;;21.20;44.36;103767.22;5050552;27;96830;-76
2023/12/16 04:32:37;;;;;;;1.08;0.85;;;;;;;21.19;44.12;103765.47;5035557;27;97032;-76
2023/12/16 04:35:04;;;;;;;1.30;0.70;;;;;;;21.20;44.06;103780.00;5039944;27;97942;-77
2023/12/16 04:37:31;;;;;;;1.60;0.82;;;;;;;21.19;44.29;103776.41;5054306;27;99659;-76
2023/12/16 04:39:58;;;;;;;2.00;1.02;;;;;;;21.19;44.05;103778.25;5069908;27;96756;-76
2023/12/16 04:42:24;;;;;;;2.15;1.10;;;;;;;21.19;44.19;103773.66;5066591;27;97099;-76
2023/12/16 04:44:51;;;;;;;1.77;0.70;;;;;;;21.20;44.21;103769.09;5055948;27;97654;-77
2023/12/16 04:47:17;;;;;;;1.23;0.80;;;;;;;21.20;44.04;103760.88;5041747;27;98646;-76
2023/12/16 04:49:44;;;;;;;1.10;0.70;;;;;;;21.19;43.88;103760.00;5063338;27;96796;-77
2023/12/16 04:52:11;;;;;;;1.20;0.80;;;;;;;21.20;44.31;103763.63;5067954;27;96866;-77
2023/12/16 04:54:37;;;;;;;1.27;0.73;;;;;;;21.20;43.99;103755.41;5074060;27;96808;-76
2023/12/16 04:57:04;;;;;;;1.30;0.82;;;;;;;21.20;43.93;103763.63;5055576;27;96793;-76
2023/12/16 04:59:31;;;;;;;1.95;0.80;;;;;;;21.20;44.01;103760.88;5048213;27;97231;-77
2023/12/16 05:01:58;;;;;;;2.47;1.10;;;;;;;21.19;44.13;103770.06;5073668;27;97310;-77
2023/12/16 05:04:25;;;;;;;1.73;0.95;;;;;;;21.20;43.91;103767.22;5052847;27;99027;-77
2023/12/16 05:06:51;;;;;;;2.85;1.20;;;;;;;21.20;44.30;103758.16;5069714;27;98735;-77
2023/12/16 05:09:21;;;;;;;1.70;1.00;;;;;;;21.20;44.19;103760.88;5063918;27;97789;-77
2023/12/16 05:11:47;;;;;;;1.58;0.90;;;;;;;21.20;44.07;103760.88;5065657;27;96838;-77
2023/12/16 05:14:14;;;;;;;1.35;0.80;;;;;;;21.20;44.00;103763.63;5034876;27;97240;-77
2023/12/16 05:16:40;;;;;;;2.08;1.00;;;;;;;21.20;44.10;103763.63;5073370;27;97203;-76
2023/12/16 05:19:07;;;;;;;1.77;0.98;;;;;;;21.20;44.08;103764.50;5046599;27;96747;-77
2023/12/16 05:21:34;;;;;;;1.80;1.02;;;;;;;21.21;44.05;103776.28;5047190;27;96913;-76
2023/12/16 05:24:01;;;;;;;1.73;0.90;;;;;;;21.20;44.02;103769.09;5070286;27;96704;-76
2023/12/16 05:26:27;;;;;;;2.17;0.75;;;;;;;21.20;44.08;103774.53;5037943;27;99459;-76
2023/12/16 05:28:54;;;;;;;1.70;0.90;;;;;;;21.20;43.87;103769.97;5055224;27;97141;-77
2023/12/16 05:31:21;;;;;;;1.80;0.88;;;;;;;21.20;43.95;103777.28;5040561;27;96921;-77
2023/12/16 05:33:48;;;;;;;1.83;1.00;;;;;;;21.21;44.06;103776.28;5067460;27;97514;-77
2023/12/16 05:36:15;;;;;;;1.55;0.70;;;;;;;21.20;43.72;103775.44;5074105;27;96637;-77
2023/12/16 05:38:41;;;;;;;2.22;0.90;;;;;;;21.20;44.05;103774.53;5074082;27;97140;-76
2023/12/16 05:41:08;;;;;;;1.10;0.80;;;;;;;21.20;44.41;103771.81;5074013;27;96830;-76
2023/12/16 05:43:35;;;;;;;1.90;1.15;;;;;;;21.20;44.16;103771.81;5051517;27;99808;-76
2023/12/16 05:46:01;;;;;;;1.10;0.60;;;;;;;21.21;44.18;103776.28;5056230;27;97884;-76
2023/12/16 05:48:28;;;;;;;1.20;0.73;;;;;;;21.21;43.89;103776.28;5050790;27;97228;-76
2023/12/16 05:50:55;;;;;;;1.10;1.00;;;;;;;21.21;44.23;103779.03;5054772;27;96695;-77
2023/12/16 05:53:22;;;;;;;1.55;0.90;;;;;;;21.21;43.86;103776.28;5044102;27;99971;-77
2023/12/16 05:55:48;;;;;;;1.10;0.90;;;;;;;21.21;43.74;103781.75;5065425;27;96646;-76
2023/12/16 05:58:15;;;;;;;1.33;0.80;;;;;;;21.20;43.73;103782.75;5066501;27;96983;-76
2023/12/16 06:00:46;;;;;;;2.50;0.95;;;;;;;21.21;43.83;103784.50;5047343;27;96710;-77
2023/12/16 06:03:13;;;;;;;2.50;0.80;;;;;;;21.22;44.15;103778.03;5053623;27;97441;-77
2023/12/16 06:05:40;;;;;;;1.48;0.88;;;;;;;21.21;43.90;103774.44;5073102;27;97564;-76
2023/12/16 06:08:06;;;;;;;1.52;0.80;;;;;;;21.21;43.81;103768.09;5064369;27;97441;-76
2023/12/16 06:10:33;;;;;;;1.60;1.00;;;;;;;21.21;43.97;103770.84;5032462;27;96878;-76
2023/12/16 06:13:00;;;;;;;1.85;0.85;;;;;;;21.21;43.61;103765.38;5062223;27;98178;-76
2023/12/16 06:15:26;;;;;;;1.88;0.75;;;;;;;21.21;43.98;103777.16;5062295;27;96573;-77
2023/12/16 06:17:53;;;;;;;2.13;0.90;;;;;;;21.21;44.07;103781.75;5065614;27;96778;-76
2023/12/16 06:20:20;;;;;;;1.08;0.60;;;;;;;21.21;43.85;103774.44;5067502;27;97392;-77
2023/12/16 06:22:46;;;;;;;1.52;0.90;;;;;;;21.21;43.92;103774.44;5037390;27;97558;-77
2023/12/16 06:25:13;;;;;;;1.30;0.90;;;;;;;21.21;43.74;103768.09;5071434;27;97180;-76
2023/12/16 06:27:40;;;;;;;2.13;0.90;;;;;;;21.21;44.19;103768.97;5059217;27;97292;-76
2023/12/16 06:30:08;;;;;;;1.25;0.75;;;;;;;21.21;43.98;103773.56;5051129;27;97232;-77
2023/12/16 06:32:35;;;;;;;1.27;0.80;;;;;;;21.21;43.63;103768.97;5043062;27;97667;-77
2023/12/16 06:35:02;;;;;;;1.42;0.73;;;;;;;21.20;43.89;103766.34;5056197;27;96811;-77
2023/12/16 06:37:29;;;;;;;1.55;0.70;;;;;;;21.20;43.93;103763.63;5052670;27;97027;-77
2023/12/16 06:39:56;;;;;;;1.33;0.90;;;;;;;21.21;43.56;103770.84;5073352;27;96602;-77
2023/12/16 06:42:24;;;;;;;1.55;0.80;;;;;;;21.22;43.94;103764.38;5064176;27;96769;-77
2023/12/16 06:44:51;;;;;;;1.08;0.90;;;;;;;21.19;43.67;103757.28;5066471;27;96792;-77
2023/12/16 06:47:17;;;;;;;1.35;1.02;;;;;;;21.21;44.29;103763.50;5042522;27;97205;-77
2023/12/16 06:49:44;;;;;;;2.00;0.88;;;;;;;21.21;43.80;103763.50;5054817;27;96952;-77
2023/12/16 06:52:10;;;;;;;2.17;1.02;;;;;;;21.20;43.88;103764.50;5061828;27;96650;-76
2023/12/16 06:54:37;;;;;;;1.23;0.80;;;;;;;21.21;43.75;103762.63;5067942;27;96661;-77
2023/12/16 06:57:04;;;;;;;2.08;0.90;;;;;;;21.21;43.78;103768.97;5058494;27;96796;-77
2023/12/16 06:59:32;;;;;;;1.42;0.80;;;;;;;21.21;43.74;103770.84;5044196;27;97305;-77
2023/12/16 07:01:59;;;;;;;1.38;0.88;;;;;;;21.21;43.66;103779.91;5041995;27;97188;-76
2023/12/16 07:04:26;;;;;;;1.48;0.90;;;;;;;21.21;43.76;103779.03;5060697;27;97272;-76
2023/12/16 07:06:53;;;;;;;2.45;0.90;;;;;;;21.21;43.81;103774.44;5067502;27;96804;-76
2023/12/16 07:09:20;;;;;;;1.13;0.75;;;;;;;21.20;43.87;103777.28;5038314;27;96634;-76
2023/12/16 07:11:46;;;;;;;1.83;1.05;;;;;;;21.20;43.71;103780.88;5069829;27;96780;-77
2023/12/16 07:14:13;;;;;;;1.65;0.90;;;;;;;21.21;43.87;103779.91;5072092;27;96704;-76
2023/12/16 07:16:40;;;;;;;1.83;0.95;;;;;;;21.21;43.56;103781.75;5066932;27;97047;-76
2023/12/16 07:19:07;;;;;;;1.65;0.90;;;;;;;21.21;43.89;103784.50;5057492;27;96821;-77
2023/12/16 07:21:34;;;;;;;2.33;0.77;;;;;;;21.20;43.56;103789.09;5065293;27;100129;-76
2023/12/16 07:24:01;;;;;;;1.73;0.85;;;;;;;21.21;43.72;103814.56;5058116;27;97886;-76
2023/12/16 07:26:28;;;;;;;1.30;0.77;;;;;;;21.20;44.00;103813.69;5052252;27;97447;-76
2023/12/16 07:28:54;;;;;;;1.70;0.63;;;;;;;21.21;43.76;103804.50;5071631;27;96988;-77
2023/12/16 07:31:21;;;;;;;1.40;0.70;;;;;;;21.20;43.91;103805.50;5052443;27;100132;-76
2023/12/16 07:33:49;;;;;;;1.15;0.77;;;;;;;21.21;43.65;103814.56;5070826;27;98034;-76
2023/12/16 07:36:15;;;;;;;2.38;0.88;;;;;;;21.20;43.80;103821.88;5060079;27;96976;-76
2023/12/16 07:38:42;;;;;;;1.40;0.90;;;;;;;21.21;43.89;103814.56;5044290;27;96795;-76
2023/12/16 07:41:09;;;;;;;1.50;0.85;;;;;;;21.20;43.80;103808.22;5049431;27;97572;-76
2023/12/16 07:43:37;;;;;;;1.42;0.82;;;;;;;21.21;43.72;103809.09;5038970;27;98044;-76
2023/12/16 07:46:25;;;;;;;2.00;1.00;;;;;;;21.21;43.51;103809.09;5036112;27;96649;-76
2023/12/16 07:48:52;;;;;;;1.75;0.70;;;;;;;21.20;43.48;103815.53;5049028;27;97949;-76
2023/12/16 07:51:19;;;;;;;1.17;0.80;;;;;;;21.20;43.86;103812.81;5042480;27;97115;-77
2023/12/16 07:53:49;;;;;;;2.60;0.80;;;;;;;21.20;43.59;103810.94;5065243;27;97472;-76
2023/12/16 07:56:24;;;;;;;1.20;0.80;;;;;;;21.21;43.66;103812.72;5069415;27;96831;-76
2023/12/16 07:58:50;;;;;;;1.55;0.82;;;;;;;21.20;43.72;103812.81;5045693;27;96804;-76
2023/12/16 08:01:18;;;;;;;1.65;0.80;;;;;;;21.20;43.78;103818.28;5073541;27;96922;-76
2023/12/16 08:03:50;;;;;;;1.88;0.70;;;;;;;21.21;43.55;103822.75;5048637;27;96809;-76
2023/12/16 08:06:18;;;;;;;1.10;0.70;;;;;;;21.21;43.65;103833.69;5051554;27;96792;-77
2023/12/16 08:08:45;;;;;;;1.20;0.60;;;;;;;21.21;43.81;103828.22;5051494;27;97302;-76
2023/12/16 08:11:12;;;;;;;1.70;1.02;;;;;;;21.21;43.63;103831.84;5036788;27;99090;-76
2023/12/16 08:13:39;;;;;;;2.05;0.73;;;;;;;21.22;43.58;103829.97;5064315;27;96902;-76
2023/12/16 08:16:11;;;;;;;1.77;0.80;;;;;;;21.22;43.46;103840.91;5066301;27;97161;-76
2023/12/16 08:18:40;;;;;;;2.03;0.90;;;;;;;21.20;43.55;103831.94;5056989;27;97008;-76
2023/12/16 08:21:07;;;;;;;1.77;0.90;;;;;;;21.21;43.71;103839.16;5067187;27;96692;-76
2023/12/16 08:23:33;;;;;;;2.97;1.02;;;;;;;21.21;43.63;103836.44;5052482;27;99070;-76
2023/12/16 08:26:00;;;;;;;2.58;0.95;;;;;;;21.21;43.58;103834.56;5070584;27;96979;-76
2023/12/16 08:28:27;;;;;;;1.60;0.75;;;;;;;21.21;43.43;103833.69;5057327;27;96982;-76
2023/12/16 08:30:53;;;;;;;1.20;0.85;;;;;;;21.22;43.62;103836.34;5065415;27;97754;-76
2023/12/16 08:33:20;;;;;;;1.63;0.73;;;;;;;21.23;43.61;103840.84;5071968;27;97756;-76
2023/12/16 08:35:47;;;;;;;1.17;0.70;;;;;;;21.23;43.66;103835.38;5055675;27;97270;-76
2023/12/16 08:38:14;;;;;;;1.73;0.90;;;;;;;21.23;43.49;103832.63;5065950;27;96878;-76
2023/12/16 08:40:40;;;;;;;1.98;0.70;;;;;;;21.23;43.54;103832.63;5072883;27;98243;-76
2023/12/16 08:43:07;;;;;;;2.05;1.00;;;;;;;21.24;43.56;103844.44;5066008;27;97644;-76
2023/12/16 08:45:40;;;;;;;1.80;0.80;;;;;;;21.24;43.59;103844.44;5064720;27;97079;-76
2023/12/16 08:48:11;;;;;;;1.85;0.93;;;;;;;21.23;43.61;103832.63;5047527;27;97369;-76
2023/12/16 08:50:37;;;;;;;1.85;0.90;;;;;;;21.23;43.60;103829.91;5063795;27;97339;-76
2023/12/16 08:53:07;;;;;;;1.17;0.60;;;;;;;21.25;43.55;103829.81;5061549;27;97869;-76
2023/12/16 08:55:34;;;;;;;1.48;0.95;;;;;;;21.24;43.55;103834.38;5055095;27;96999;-76
2023/12/16 08:58:01;;;;;;;1.10;0.75;;;;;;;21.25;43.70;103835.28;5067527;27;96669;-76
2023/12/16 09:00:27;;;;;;;1.52;0.63;;;;;;;21.25;43.63;103840.75;5048218;27;100854;-76
2023/12/16 09:02:54;;;;;;;1.98;0.60;;;;;;;21.25;43.64;103838.88;5059178;27;97367;-76
2023/12/16 09:05:21;;;;;;;1.85;0.88;;;;;;;21.25;43.72;103848.94;5062348;27;97083;-76
2023/12/16 09:07:47;;;;;;;2.25;0.85;;;;;;;21.25;43.58;103844.34;5044579;27;97020;-76
2023/12/16 09:10:14;;;;;;;1.52;0.93;;;;;;;21.26;43.54;103845.22;5059597;27;96806;-76
2023/12/16 09:12:40;;;;;;;1.48;0.95;;;;;;;21.24;43.29;103839.84;5037982;27;98836;-76
2023/12/16 09:15:08;;;;;;;1.38;0.77;;;;;;;21.25;43.48;103843.47;5060746;27;96793;-76
2023/12/16 09:17:34;;;;;;;1.10;0.63;;;;;;;21.25;43.63;103838.88;5056950;27;96958;-76
2023/12/16 09:20:01;;;;;;;1.48;0.65;;;;;;;21.25;43.41;103847.06;5060624;27;97428;-76
2023/12/16 09:22:28;;;;;;;1.45;0.80;;;;;;;21.27;43.42;103851.56;5063986;27;97393;-76
2023/12/16 09:24:54;;;;;;;1.83;0.90;;;;;;;21.26;43.67;103850.69;5049606;27;97133;-76
2023/12/16 09:27:21;;;;;;;1.30;0.70;;;;;;;21.26;43.54;103858.88;5067586;27;96660;-76
2023/12/16 09:29:48;;;;;;;0.90;0.70;;;;;;;21.25;43.55;103855.28;5062819;27;96786;-75
2023/12/16 09:32:15;;;;;;;1.67;0.80;;;;;;;21.27;43.65;103867.97;5060004;27;96749;-76
2023/12/16 09:34:42;;;;;;;1.33;0.60;;;;;;;21.26;43.59;103869.81;5074963;27;96834;-75
2023/12/16 09:37:09;;;;;;;1.40;0.90;;;;;;;21.26;43.53;103869.81;5049250;27;97337;-75
2023/12/16 09:39:35;;;;;;;1.42;0.70;;;;;;;21.26;43.57;103869.81;5056195;27;97627;-76
2023/12/16 09:42:03;;;;;;;2.00;0.90;;;;;;;21.26;43.61;103880.75;5056673;27;97334;-76
2023/12/16 09:44:35;;;;;;;1.65;0.70;;;;;;;21.26;43.47;103875.28;5056027;27;96684;-76
2023/12/16 09:47:03;;;;;;;2.25;0.90;;;;;;;21.26;43.60;103880.75;5057972;27;96728;-76
2023/12/16 09:49:31;;;;;;;2.42;0.73;;;;;;;21.25;43.66;103879.00;5052933;27;97227;-76
2023/12/16 09:51:57;;;;;;;1.98;0.70;;;;;;;21.25;43.28;103877.16;5067587;27;97450;-76
2023/12/16 09:54:24;;;;;;;2.72;0.90;;;;;;;21.26;43.59;103878.03;5051886;27;96797;-76
2023/12/16 09:56:51;;;;;;;1.80;0.85;;;;;;;21.25;43.55;103877.16;5052805;27;96792;-76
2023/12/16 09:59:20;;;;;;;2.28;1.17;;;;;;;21.25;43.35;103882.63;5056852;27;97448;-76
2023/12/16 10:01:50;;;;;;;2.25;1.05;;;;;;;21.26;43.33;103880.75;5038233;27;96897;-76
2023/12/16 10:04:17;;;;;;;1.90;0.80;;;;;;;21.26;43.60;103886.22;5041701;27;96716;-76
2023/12/16 10:06:44;;;;;;;1.60;0.93;;;;;;;21.25;43.51;103889.94;5053352;27;97456;-76
2023/12/16 10:09:11;;;;;;;3.78;0.90;;;;;;;21.24;43.49;103889.06;5052624;27;96821;-76
2023/12/16 10:11:41;;;;;;;2.00;0.73;;;;;;;21.26;43.79;103886.22;5056012;27;97569;-76
2023/12/16 10:14:07;;;;;;;1.65;0.90;;;;;;;21.26;43.39;103891.69;5052049;27;97053;-76
2023/12/16 10:16:38;;;;;;;2.78;0.90;;;;;;;21.24;43.61;103886.31;5064446;27;96760;-75
2023/12/16 10:19:04;;;;;;;3.05;1.02;;;;;;;21.25;43.41;103890.81;5062762;27;97193;-76
2023/12/16 10:21:32;;;;;;;2.08;0.73;;;;;;;21.26;43.58;103891.69;5063676;27;97519;-76
2023/12/16 10:24:00;;;;;;;1.90;0.70;;;;;;;21.25;43.50;103896.28;5054438;27;96673;-76
2023/12/16 10:26:31;;;;;;;2.25;0.80;;;;;;;21.27;43.40;103895.31;5059812;27;96758;-76
2023/12/16 10:29:03;;;;;;;1.25;0.70;;;;;;;21.25;43.47;103895.41;5069095;27;96966;-76
2023/12/16 10:31:30;;;;;;;1.67;0.63;;;;;;;21.24;43.23;103900.00;5063647;27;96639;-76
2023/12/16 10:34:01;;;;;;;2.50;0.70;;;;;;;21.25;43.15;103892.69;5053489;27;96942;-76
2023/12/16 10:36:31;;;;;;;1.42;0.70;;;;;;;21.24;43.38;103889.06;5066829;27;96873;-76
2023/12/16 10:38:58;;;;;;;1.23;0.75;;;;;;;21.24;43.47;103886.31;5062218;27;99728;-76
2023/12/16 10:41:24;;;;;;;2.45;1.10;;;;;;;21.24;43.24;103889.06;5065434;27;97479;-76
2023/12/16 10:43:51;;;;;;;1.92;0.82;;;;;;;21.24;43.36;103885.44;5066167;27;97246;-76
2023/12/16 10:46:29;;;;;;;2.67;0.90;;;;;;;21.24;43.41;103878.13;5071305;27;97974;-76
2023/12/16 10:49:00;;;;;;;2.50;0.98;;;;;;;21.24;43.22;103872.66;5072379;27;96688;-77
2023/12/16 10:51:29;;;;;;;2.17;0.90;;;;;;;21.24;43.36;103877.25;5058724;27;97170;-78
2023/12/16 10:54:13;;;;;;;1.73;0.80;;;;;;;21.24;43.36;103869.06;5034932;27;97198;-75
2023/12/16 10:56:47;;;;;;;0.93;0.70;;;;;;;21.24;43.24;103872.66;5064818;27;96595;-75
2023/12/16 10:59:30;;;;;;;2.28;1.00;;;;;;;21.24;43.59;103882.72;5056118;27;96735;-76
2023/12/16 11:02:02;;;;;;;3.22;0.90;;;;;;;21.23;43.23;103876.38;5060694;27;96738;-76
2023/12/16 11:04:37;;;;;;;1.73;0.90;;;;;;;21.24;43.48;103871.78;5062422;27;97274;-75
2023/12/16 11:07:10;;;;;;;1.80;0.90;;;;;;;21.24;43.54;103866.31;5043918;27;97054;-76
2023/12/16 11:09:37;;;;;;;1.83;0.73;;;;;;;21.23;43.45;103862.72;5058766;27;96861;-76
2023/12/16 11:12:04;;;;;;;1.52;0.80;;;;;;;21.26;43.37;103864.34;5052189;27;96810;-76
2023/12/16 11:14:31;;;;;;;1.35;0.80;;;;;;;21.25;43.42;103858.00;5059161;27;96920;-76
2023/12/16 11:16:58;;;;;;;2.38;0.80;;;;;;;21.24;43.16;103853.53;5071997;27;96815;-75
2023/12/16 11:19:45;;;;;;;2.05;0.82;;;;;;;21.27;43.07;103857.03;5059431;27;96754;-76
2023/12/16 11:22:16;;;;;;;4.63;1.02;;;;;;;21.25;43.23;103851.66;5031827;27;98806;-76
2023/12/16 11:24:44;;;;;;;1.48;0.70;;;;;;;21.25;43.44;103848.94;5061569;27;97238;-76